createdAt,value
2022-10-15T00:00:41.488Z,10.88
2022-10-15T00:04:44.856Z,10.88
2022-10-15T00:08:50.282Z,10.85
2022-10-15T00:12:53.484Z,10.84
2022-10-15T00:16:56.875Z,10.82
2022-10-15T00:21:00.039Z,10.79
2022-10-15T00:25:05.106Z,10.74
2022-10-15T00:29:08.457Z,10.71
2022-10-15T00:33:11.564Z,10.70
2022-10-15T00:37:14.971Z,10.71
2022-10-15T00:41:22.155Z,10.68
2022-10-15T00:45:25.401Z,10.68
2022-10-15T00:49:34.659Z,10.70
2022-10-15T00:53:37.716Z,10.71
2022-10-15T00:57:45.985Z,10.73
2022-10-15T01:01:49.330Z,10.72
2022-10-15T01:05:54.538Z,10.72
2022-10-15T01:09:57.942Z,10.74
2022-10-15T01:14:13.658Z,10.78
2022-10-15T01:18:21.680Z,10.78
2022-10-15T01:22:38.451Z,10.76
2022-10-15T01:27:09.757Z,10.73
2022-10-15T01:31:22.669Z,10.70
2022-10-15T01:35:38.672Z,10.67
2022-10-15T01:39:46.915Z,10.63
2022-10-15T01:43:58.269Z,10.63
2022-10-15T01:48:34.189Z,10.65
2022-10-15T01:52:41.639Z,10.66
2022-10-15T01:56:49.812Z,10.69
2022-10-15T02:00:58.382Z,10.73
2022-10-15T02:05:06.179Z,10.74
2022-10-15T02:09:17.741Z,10.76
2022-10-15T02:13:26.918Z,10.78
2022-10-15T02:17:37.078Z,10.81
2022-10-15T02:21:48.151Z,10.81
2022-10-15T02:25:53.635Z,10.84
2022-10-15T02:29:59.334Z,10.84
2022-10-15T02:34:06.957Z,10.86
2022-10-15T02:38:18.440Z,10.87
2022-10-15T02:42:22.347Z,10.89
2022-10-15T02:46:25.645Z,10.89
2022-10-15T02:50:28.991Z,10.89
2022-10-15T02:54:33.471Z,10.87
2022-10-15T02:58:37.020Z,10.88
2022-10-15T03:02:42.662Z,10.89
2022-10-15T03:06:46.018Z,10.91
2022-10-15T03:10:51.871Z,10.93
2022-10-15T03:14:54.990Z,10.97
2022-10-15T03:18:58.702Z,10.99
2022-10-15T03:23:02.157Z,11.02
2022-10-15T03:27:08.730Z,11.00
2022-10-15T03:31:13.613Z,10.97
2022-10-15T03:35:17.248Z,10.97
2022-10-15T03:39:20.338Z,10.99
2022-10-15T03:43:26.622Z,11.00
2022-10-15T03:47:29.669Z,11.03
2022-10-15T03:51:33.754Z,11.06
2022-10-15T03:55:42.567Z,11.09
2022-10-15T03:59:47.486Z,11.10
2022-10-15T04:03:53.308Z,11.11
2022-10-15T04:07:58.861Z,11.12
2022-10-15T04:12:04.147Z,11.15
2022-10-15T04:16:08.865Z,11.14
2022-10-15T04:20:12.787Z,11.14
2022-10-15T04:24:19.592Z,11.15
2022-10-15T04:28:22.932Z,11.13
2022-10-15T04:32:27.611Z,11.11
2022-10-15T04:36:32.326Z,11.10
2022-10-15T04:40:41.221Z,11.09
2022-10-15T04:44:44.296Z,11.08
2022-10-15T04:48:50.505Z,11.05
2022-10-15T04:52:54.433Z,11.00
2022-10-15T04:56:59.128Z,11.00
2022-10-15T05:01:03.875Z,11.01
2022-10-15T05:05:12.644Z,11.01
2022-10-15T05:09:25.651Z,11.02
2022-10-15T05:13:29.452Z,11.05
2022-10-15T05:17:33.048Z,11.06
2022-10-15T05:21:38.362Z,11.08
2022-10-15T05:25:53.133Z,11.09
2022-10-15T05:30:00.482Z,11.13
2022-10-15T05:34:14.971Z,11.14
2022-10-15T05:38:28.656Z,11.11
2022-10-15T05:42:34.680Z,11.13
2022-10-15T05:46:37.960Z,11.15
2022-10-15T05:50:41.135Z,11.18
2022-10-15T05:54:49.188Z,11.20
2022-10-15T05:58:52.549Z,11.22
2022-10-15T06:02:58.140Z,11.26
2022-10-15T06:07:01.952Z,11.28
2022-10-15T06:11:09.316Z,11.31
2022-10-15T06:15:12.856Z,11.35
2022-10-15T06:19:16.226Z,11.39
2022-10-15T06:23:19.406Z,11.45
2022-10-15T06:27:24.065Z,11.50
2022-10-15T06:31:27.501Z,11.52
2022-10-15T06:35:33.423Z,11.54
2022-10-15T06:39:36.676Z,11.58
2022-10-15T06:43:41.306Z,11.60
2022-10-15T06:47:45.584Z,11.63
2022-10-15T06:51:48.824Z,11.68
2022-10-15T06:55:51.857Z,11.74
2022-10-15T06:59:56.278Z,11.80
2022-10-15T07:03:59.642Z,11.83
2022-10-15T07:08:02.742Z,11.84
2022-10-15T07:12:07.158Z,11.86
2022-10-15T07:16:13.245Z,11.88
2022-10-15T07:20:20.232Z,11.91
2022-10-15T07:24:26.357Z,11.96
2022-10-15T07:28:29.504Z,11.99
2022-10-15T07:32:34.059Z,12.03
2022-10-15T07:36:37.047Z,12.07
2022-10-15T07:40:40.253Z,12.10
2022-10-15T07:44:43.467Z,12.14
2022-10-15T07:48:47.887Z,12.19
2022-10-15T07:52:51.120Z,12.22
2022-10-15T07:56:54.326Z,12.27
2022-10-15T08:01:00.272Z,12.35
2022-10-15T08:05:06.403Z,12.41
2022-10-15T08:09:09.773Z,12.48
2022-10-15T08:13:12.961Z,12.54
2022-10-15T08:17:16.059Z,12.60
2022-10-15T08:21:20.652Z,12.69
2022-10-15T08:25:23.728Z,12.80
2022-10-15T08:29:26.968Z,12.94
2022-10-15T08:33:30.003Z,13.03
2022-10-15T08:37:34.453Z,13.10
2022-10-15T08:41:41.605Z,13.17
2022-10-15T08:45:48.890Z,13.27
2022-10-15T08:49:54.661Z,13.34
2022-10-15T08:54:04.687Z,13.39
2022-10-15T08:58:16.963Z,13.41
2022-10-15T09:02:26.960Z,13.46
2022-10-15T09:06:35.852Z,13.47
2022-10-15T09:10:47.672Z,13.50
2022-10-15T09:14:55.696Z,13.55
2022-10-15T09:19:03.944Z,13.65
2022-10-15T09:23:17.470Z,13.75
2022-10-15T09:27:31.564Z,13.79
2022-10-15T09:31:42.432Z,13.78
2022-10-15T09:35:52.317Z,13.80
2022-10-15T09:40:10.084Z,13.84
2022-10-15T09:44:17.414Z,13.86
2022-10-15T09:48:24.850Z,13.88
2022-10-15T09:52:46.529Z,13.92
2022-10-15T09:56:53.769Z,13.94
2022-10-15T10:01:03.172Z,13.99
2022-10-15T10:05:28.194Z,14.07
2022-10-15T10:09:34.785Z,14.11
2022-10-15T10:13:43.398Z,14.13
2022-10-15T10:17:53.335Z,14.13
2022-10-15T10:22:07.920Z,14.15
2022-10-15T10:26:12.624Z,14.13
2022-10-15T10:30:16.322Z,14.13
2022-10-15T10:34:28.877Z,14.15
2022-10-15T10:38:34.555Z,14.18
2022-10-15T10:42:38.329Z,14.17
2022-10-15T10:46:43.661Z,14.20
2022-10-15T10:50:48.383Z,14.25
2022-10-15T10:54:59.219Z,14.28
2022-10-15T10:59:11.043Z,14.32
2022-10-15T11:03:23.904Z,14.34
2022-10-15T11:07:42.645Z,14.37
2022-10-15T11:11:55.711Z,14.41
2022-10-15T11:16:03.791Z,14.48
2022-10-15T11:20:33.272Z,14.53
2022-10-15T11:25:06.123Z,14.62
2022-10-15T11:29:15.546Z,14.72
2022-10-15T11:33:36.983Z,14.72
2022-10-15T11:37:52.342Z,14.69
2022-10-15T11:42:07.471Z,14.61
2022-10-15T11:46:19.594Z,14.53
2022-10-15T11:50:30.211Z,14.48
2022-10-15T11:54:38.899Z,14.36
2022-10-15T11:58:49.932Z,14.29
2022-10-15T12:02:55.904Z,14.21
2022-10-15T12:07:02.127Z,14.14
2022-10-15T12:11:16.652Z,14.07
2022-10-15T12:15:31.268Z,14.00
2022-10-15T12:19:41.985Z,13.96
2022-10-15T12:23:44.964Z,13.94
2022-10-15T12:28:00.951Z,13.95
2022-10-15T12:32:05.616Z,13.92
2022-10-15T12:36:22.221Z,13.93
2022-10-15T12:40:29.424Z,13.96
2022-10-15T12:44:34.815Z,13.97
2022-10-15T12:48:41.991Z,14.01
2022-10-15T12:53:00.519Z,14.04
2022-10-15T12:57:06.437Z,14.06
2022-10-15T13:01:29.450Z,14.07
2022-10-15T13:05:38.080Z,14.11
2022-10-15T13:09:42.954Z,14.14
2022-10-15T13:13:51.981Z,14.12
2022-10-15T13:17:56.443Z,14.11
2022-10-15T13:22:03.579Z,14.04
2022-10-15T13:26:25.644Z,14.00
2022-10-15T13:30:28.694Z,13.97
2022-10-15T13:34:34.616Z,13.94
2022-10-15T13:38:44.007Z,13.93
2022-10-15T13:43:00.301Z,13.94
2022-10-15T13:47:03.512Z,13.97
2022-10-15T13:51:08.042Z,13.98
2022-10-15T13:55:24.708Z,13.99
2022-10-15T13:59:29.944Z,14.01
2022-10-15T14:03:35.908Z,14.00
2022-10-15T14:07:39.112Z,14.01
2022-10-15T14:11:43.659Z,13.98
2022-10-15T14:15:58.620Z,13.98
2022-10-15T14:20:26.386Z,14.01
2022-10-15T14:24:35.258Z,14.01
2022-10-15T14:28:41.554Z,14.02
2022-10-15T14:32:48.040Z,14.07
2022-10-15T14:36:51.530Z,14.13
2022-10-15T14:41:06.385Z,14.16
2022-10-15T14:45:22.056Z,14.15
2022-10-15T14:49:27.908Z,14.14
2022-10-15T14:53:36.791Z,14.12
2022-10-15T14:57:42.715Z,14.08
2022-10-15T15:01:57.317Z,14.08
2022-10-15T15:06:03.212Z,14.10
2022-10-15T15:10:08.842Z,14.10
2022-10-15T15:14:23.413Z,14.11
2022-10-15T15:18:28.388Z,14.10
2022-10-15T15:22:34.068Z,14.10
2022-10-15T15:26:37.082Z,14.09
2022-10-15T15:30:42.413Z,14.05
2022-10-15T15:34:47.108Z,14.01
2022-10-15T15:38:50.172Z,14.01
2022-10-15T15:42:53.514Z,14.01
2022-10-15T15:46:56.512Z,14.00
2022-10-15T15:51:03.858Z,14.01
2022-10-15T15:55:08.567Z,14.02
2022-10-15T15:59:11.794Z,14.03
2022-10-15T16:03:15.514Z,14.04
2022-10-15T16:07:19.887Z,14.02
2022-10-15T16:11:23.071Z,14.03
2022-10-15T16:15:26.096Z,13.99
2022-10-15T16:19:29.106Z,14.01
2022-10-15T16:23:33.487Z,14.02
2022-10-15T16:27:36.498Z,13.99
2022-10-15T16:31:39.688Z,14.00
2022-10-15T16:35:42.786Z,13.97
2022-10-15T16:39:47.373Z,13.95
2022-10-15T16:43:50.905Z,13.94
2022-10-15T16:47:53.889Z,13.96
2022-10-15T16:51:57.296Z,13.99
2022-10-15T16:56:03.110Z,14.00
2022-10-15T17:00:06.950Z,14.02
2022-10-15T17:04:10.259Z,14.04
2022-10-15T17:08:14.710Z,14.02
2022-10-15T17:12:19.423Z,14.02
2022-10-15T17:16:25.488Z,14.03
2022-10-15T17:20:28.546Z,14.04
2022-10-15T17:24:31.800Z,14.02
2022-10-15T17:28:37.033Z,14.03
2022-10-15T17:32:40.255Z,14.02
2022-10-15T17:36:47.205Z,14.03
2022-10-15T17:41:10.509Z,14.04
2022-10-15T17:45:15.093Z,14.05
2022-10-15T17:49:18.961Z,14.06
2022-10-15T17:53:22.042Z,14.06
2022-10-15T17:57:25.469Z,14.02
2022-10-15T18:01:56.721Z,14.02
2022-10-15T18:05:54.836Z,14.00
2022-10-15T18:09:57.800Z,13.99
2022-10-15T18:14:00.880Z,13.99
2022-10-15T18:18:05.336Z,13.98
2022-10-15T18:22:08.361Z,13.99
2022-10-15T18:26:18.601Z,14.00
2022-10-15T18:30:22.951Z,14.02
2022-10-15T18:34:28.394Z,14.00
2022-10-15T18:38:31.569Z,14.00
2022-10-15T18:42:34.602Z,14.00
2022-10-15T18:46:42.263Z,14.01
2022-10-15T18:54:54.883Z,14.00
2022-10-15T18:58:58.098Z,13.98
2022-10-15T19:03:01.282Z,13.95
2022-10-15T19:07:05.851Z,13.95
2022-10-15T19:11:09.388Z,13.93
2022-10-15T19:15:12.737Z,13.91
2022-10-15T19:19:20.036Z,13.90
2022-10-15T19:23:25.126Z,13.87
2022-10-15T19:27:28.450Z,13.84
2022-10-15T19:31:34.586Z,13.84
2022-10-15T19:35:41.261Z,13.87
2022-10-15T19:39:48.422Z,13.88
2022-10-15T19:43:51.419Z,13.88
2022-10-15T19:47:55.605Z,13.88
2022-10-15T19:52:01.228Z,13.89
2022-10-15T19:56:08.121Z,13.87
2022-10-15T20:00:13.061Z,13.83
2022-10-15T20:04:16.051Z,13.79
2022-10-15T20:08:19.510Z,13.78
2022-10-15T20:12:23.902Z,13.76
2022-10-15T20:16:30.045Z,13.75
2022-10-15T20:20:36.223Z,13.73
2022-10-15T20:24:39.242Z,13.72
2022-10-15T20:28:45.691Z,13.69
2022-10-15T20:32:49.296Z,13.66
2022-10-15T20:36:53.099Z,13.62
2022-10-15T20:40:56.168Z,13.58
2022-10-15T20:45:00.709Z,13.55
2022-10-15T20:49:09.157Z,13.53
2022-10-15T20:53:12.776Z,13.46
2022-10-15T20:57:16.066Z,13.42
2022-10-15T21:01:20.900Z,13.40
2022-10-15T21:05:24.241Z,13.35
2022-10-15T21:09:27.270Z,13.32
2022-10-15T21:13:30.476Z,13.28
2022-10-15T21:17:35.071Z,13.24
2022-10-15T21:21:39.225Z,13.21
2022-10-15T21:25:42.342Z,13.16
2022-10-15T21:29:46.615Z,13.14
2022-10-15T21:33:51.582Z,13.10
2022-10-15T21:37:54.753Z,13.03
2022-10-15T21:41:57.771Z,13.02
2022-10-15T21:46:05.792Z,12.99
2022-10-15T21:50:10.669Z,12.97
2022-10-15T21:54:13.918Z,12.94
2022-10-15T21:58:17.528Z,12.92
2022-10-15T22:02:20.752Z,12.92
2022-10-15T22:06:25.366Z,12.90
2022-10-15T22:10:28.381Z,12.92
2022-10-15T22:14:31.377Z,12.95
2022-10-15T22:18:34.795Z,12.98
2022-10-15T22:22:39.215Z,12.99
2022-10-15T22:26:44.341Z,13.01
2022-10-15T22:30:47.460Z,12.99
2022-10-15T22:34:50.467Z,12.98
2022-10-15T22:38:57.161Z,12.98
2022-10-15T22:43:00.403Z,12.97
2022-10-15T22:47:03.601Z,12.96
2022-10-15T22:51:08.920Z,12.95
2022-10-15T22:55:13.291Z,12.93
2022-10-15T22:59:16.964Z,12.89
2022-10-15T23:03:21.108Z,12.86
2022-10-15T23:07:24.307Z,12.79
2022-10-15T23:11:32.038Z,12.76
2022-10-15T23:15:35.268Z,12.69
2022-10-15T23:19:38.511Z,12.64
2022-10-15T23:23:41.544Z,12.61
2022-10-15T23:27:46.351Z,12.60
2022-10-15T23:31:50.380Z,12.57
2022-10-15T23:36:01.985Z,12.57
2022-10-15T23:40:05.606Z,12.55
2022-10-15T23:44:10.135Z,12.52
2022-10-15T23:48:13.164Z,12.52
2022-10-15T23:52:16.143Z,12.50
2022-10-15T23:56:19.991Z,12.48
